EW9578 Weather Reports


Display with metric or nautical units.
time (UTC)temp
F
wind
direction
speed
MPH
gust
MPH
rain 1hr
in
rain 24hr
in
rain mn
in
humidity
%
barometer
mb
20200330013129 40 0.0 0.0 0.15 0.40 0.38 96 1014.8
20200330011730 40 0.0 0.0 0.13 0.38 0.36 96 1014.4
20200330010134 40 0.0 0.0 0.13 0.38 0.36 96 1014.6
20200330004620 40 0.0 0.0 0.11 0.36 0.34 96 1012.4
20200330003121 39 0.0 0.0 0.02 0.27 0.25 96 1013.2
20200330001649 39 0.0 0.0 0.00 0.25 0.23 95 1013.1
20200330000201 39 0.0 0.0 0.00 0.25 0.23 95 1013.7
20200329234651 39 0.0 0.0 0.01 0.25 0.23 95 1014.3
20200329233145 39 0.0 0.0 0.01 0.25 0.23 95 1014.6
20200329231643 39 0.0 0.0 0.01 0.25 0.23 95 1015.2
20200329230123 40 0.0 0.0 0.01 0.25 0.23 95 1015.3
20200329224632 40 0.0 0.0 0.00 0.24 0.22 95 1015.0
20200329223222 40 0.0 0.0 0.01 0.24 0.22 95 1015.0
20200329221631 40 0.0 0.0 0.01 0.24 0.22 95 1015.2
20200329220052 39 0.0 0.0 0.01 0.24 0.22 94 1015.0
20200329214614 39 0.0 0.0 0.01 0.24 0.22 94 1014.9
20200329213211 39 0.0 0.0 0.00 0.23 0.21 94 1015.6
20200329211638 39 0.0 0.0 0.00 0.23 0.21 94 1015.5
20200329210052 39 0.0 0.0 0.00 0.23 0.21 94 1016.1
20200329204632 39 0.0 0.0 0.00 0.23 0.21 93 1016.1
20200329203149 40 0.0 0.0 0.00 0.23 0.21 92 1016.6
20200329201612 40 0.0 0.0 0.00 0.23 0.21 91 1016.8
20200329200110 41 0.0 0.0 0.00 0.23 0.21 91 1017.2
20200329194638 40 0.0 0.0 0.01 0.23 0.21 92 1017.1
20200329193100 40 0.0 0.0 0.01 0.23 0.21 92 1017.4
20200329191723 40 0.0 0.0 0.02 0.23 0.21 93 1017.3
20200329190205 40 0.0 0.0 0.02 0.23 0.21 93 1016.9
20200329184637 40 0.0 0.0 0.01 0.22 0.20 93 1017.6
20200329183040 40 0.0 0.0 0.03 0.22 0.20 93 1018.1
20200329181542 40 0.0 0.0 0.07 0.22 0.20 93 1017.8
20200329180123 40 0.0 0.0 0.07 0.21 0.19 93 1017.2
20200329174616 40 0.0 0.0 0.07 0.21 0.19 93 1017.9
20200329173100 41 0.0 0.0 0.05 0.19 0.17 91 1019.2
20200329171536 41 0.0 0.0 0.02 0.16 0.14 89 1021.0
20200329170056 42 0.0 0.0 0.00 0.14 0.12 87 1020.4
20200329164601 42 0.0 0.0 0.00 0.14 0.12 87 1019.9
20200329163045 42 0.0 0.0 0.00 0.14 0.12 88 1019.6
20200329161629 42 0.0 0.0 0.00 0.14 0.12 88 1019.5
20200329160022 43 0.0 0.0 0.00 0.14 0.12 87 1019.3
20200329154612 42 0.0 0.0 0.00 0.14 0.12 92 1019.4
20200329153056 41 0.0 0.0 0.00 0.14 0.12 94 1019.8
20200329151526 42 0.0 0.0 0.00 0.14 0.12 94 1019.8
20200329150054 42 0.0 0.0 0.00 0.14 0.12 94 1019.9
20200329144537 42 0.0 0.0 0.00 0.14 0.12 94 1019.9
20200329143049 42 0.0 0.0 0.00 0.14 0.12 95 1020.0
20200329141618 42 0.0 0.0 0.00 0.14 0.12 95 1020.1
20200329140249 42 0.0 0.0 0.00 0.14 0.12 95 1019.6
20200329134651 42 0.0 0.0 0.00 0.14 0.12 96 1019.9
20200329133104 42 0.0 0.0 0.00 0.14 0.12 96 1019.5
20200329131639 42 0.0 0.0 0.00 0.14 0.12 96 1019.7
20200329130123 42 0.0 0.0 0.00 0.14 0.12 96 1019.8
20200329124623 42 0.0 0.0 0.00 0.14 0.12 96 1020.0
20200329123129 42 0.0 0.0 0.00 0.14 0.12 96 1019.7
20200329121612 42 0.0 0.0 0.00 0.14 0.12 96 1019.6
20200329120224 42 0.0 0.0 0.00 0.14 0.12 96 1020.1
20200329114604 42 0.0 0.0 0.01 0.14 0.12 96 1019.7
20200329113041 42 0.0 0.0 0.01 0.14 0.12 96 1020.0
20200329111550 42 0.0 0.0 0.01 0.14 0.12 96 1019.8
20200329110056 42 0.0 0.0 0.02 0.14 0.12 96 1019.9
20200329104615 42 0.0 0.0 0.01 0.13 0.11 96 1019.7
20200329103039 42 0.0 0.0 0.01 0.13 0.11 96 1019.9
20200329101616 42 0.0 0.0 0.01 0.13 0.11 96 1019.9
20200329100204 42 0.0 0.0 0.00 0.12 0.10 96 1019.8
20200329094542 42 0.0 0.0 0.00 0.12 0.10 95 1019.4
20200329093159 42 0.0 0.0 0.00 0.12 0.10 95 1019.0
20200329091641 42 0.0 0.0 0.00 0.12 0.10 95 1018.8
20200329090153 42 0.0 0.0 0.01 0.12 0.10 95 1019.4
20200329084538 42 0.0 0.0 0.02 0.12 0.10 95 1019.4
20200329083035 42 0.0 0.0 0.02 0.12 0.10 95 1019.3
20200329081551 42 0.0 0.0 0.03 0.12 0.10 95 1019.2
20200329080113 42 0.0 0.0 0.04 0.11 0.09 95 1019.1
20200329074625 42 0.0 0.0 0.04 0.10 0.08 94 1019.2
20200329073041 42 0.0 0.0 0.05 0.10 0.08 94 1019.1
20200329071539 42 0.0 0.0 0.04 0.09 0.07 94 1019.2
20200329070059 42 0.0 0.0 0.03 0.08 0.06 94 1019.0
20200329064542 42 0.0 0.0 0.01 0.06 0.04 94 1018.8
20200329063048 42 0.0 0.0 0.02 0.06 0.04 93 1018.9
20200329061531 42 0.0 0.0 0.01 0.05 0.03 93 1019.0
20200329060037 42 0.0 0.0 0.01 0.05 0.03 93 1018.9
20200329054539 42 0.0 0.0 0.02 0.05 0.03 92 1019.1
20200329053044 42 0.0 0.0 0.02 0.05 0.03 92 1019.6
20200329051607 42 0.0 0.0 0.02 0.04 0.02 92 1019.5
20200329050117 42 0.0 0.0 0.02 0.04 0.02 91 1019.3
20200329044531 42 0.0 0.0 0.01 0.03 0.01 91 1019.6
20200329043040 43 0.0 0.0 0.01 0.03 0.01 90 1019.7
20200329041534 43 0.0 0.0 0.00 0.02 0.00 90 1019.6
20200329040127 43 0.0 0.0 0.01 0.02 0.02 90 1019.9
20200329034550 43 0.0 0.0 0.02 0.02 0.02 89 1020.0
20200329033042 43 0.0 0.0 0.02 0.02 0.02 89 1020.1
20200329031654 43 0.0 0.0 0.02 0.02 0.02 89 1020.1
20200329030033 44 0.0 0.0 0.01 0.01 0.01 88 1020.5
20200329024523 44 0.0 0.0 0.01 0.01 0.01 86 1020.7
20200329023016 44 0.0 0.0 0.00 0.00 0.00 85 1020.8
20200329021517 45 0.0 0.0 0.00 0.00 0.00 85 1020.5
20200329020024 45 0.0 0.0 0.00 0.00 0.00 83 1020.5
20200329014517 45 0.0 0.0 0.00 0.00 0.00 81 1020.3